ADDS TAF Board (Experimental) INFO

IDs: Format: Expanded Condensed

Updated at: 0451 UTC 30 Jan 2015

KSTL - St Louis/Lambert Int, MO, US

Issued at 0410 UTC 30 Jan 2015
Time0351Z30/05Z30/06Z30/07Z30/08Z30/09Z30/10Z30/11Z30/12Z30/13Z30/14Z30/15Z30/16Z30/17Z
TypeOBSPRVLPRVLPRVLPRVLPRVLPRVLPRVLPRVLPRVLPRVLPRVLPRVLPRVL
VIS10>6>6>6>6>6>6>6>6>6>6>6>6>6
CIG292525----------------------
CoverOVCBKNBKNSCTSCTSCTSCTSCTSCTSCTSCTSCTSCTSCT
FltCatMVFRMVFRMVFRVFRVFRVFRVFRVFRVFRVFRVFRVFRVFRVFR
WX----------------------------
WDir340340340350350350350350350350350350350350
WSpd10121288888888888
WGst----------------------------
R06/24
XWnd10121288888888888
HWnd11122222222222
R11/29
XWnd67766666666666
HWnd-8-9-9-5-5-5-5-5-5-5-5-5-5-5
R12/30
XWnd67766666666666
HWnd-8-9-9-5-5-5-5-5-5-5-5-5-5-5
Raw TAF
KSTL 300410Z 3004/3106 34012KT P6SM BKN025
  FM300700 35008KT P6SM SCT030
  FM301900 VRB04KT P6SM SKC


Raw METAR
KSTL 300351Z 34010KT 10SM OVC029 03/M04 A3042 RMK AO2 SLP307 T00281039

TAF Board Legend

Hazard VFR MVFR IFR LIFR
Visibility (sm) >5 3≤X≤5 1≤X<3 <1
Ceiling (100 ft) >30 10≤X≤30 5≤X<10 <5
Wind Speed (kt) <10 10≤X<20 20≤X<30 ≥30
Wind Gust (kt) <15 15≤X<25 25≤X<35 ≥35
Weather No Wx Reported VCTS,-TS,-FZRA TS,FZRA +TS,+FZRA


Page loaded:  04:51 UTC  |   08:51 PM Pacific  |   09:51 PM Mountain  |   10:51 PM Central  |   11:51 PM Eastern

 

ADVISORIES

FORECASTS

FORECASTS

OBSERVATIONS

USER TOOLS

ABOUT US